Time,TemperatureF,DewpointF,PressureIn,WindDirection,WindDirectionDegrees,WindSpeedMPH,WindSpeedGustMPH,Humidity,HourlyPrecipIn,Conditions,Clouds,dailyrainin,SoftwareType,DateUTC
2013-11-12 00:24:00,47.0,31.0,29.88,NNW,335,2.0,9.0,54,0.00,,,0.01,,2013-11-12 05:24:00,
2013-11-12 00:53:00,47.0,32.0,29.86,NNW,344,3.0,9.0,55,0.00,,,0.01,,2013-11-12 05:53:00,
2013-11-12 01:22:00,48.0,33.0,29.86,NNW,335,2.0,5.0,55,0.00,,,0.01,,2013-11-12 06:22:00,
2013-11-12 01:42:00,48.0,32.0,29.86,NNW,327,2.0,6.0,54,0.00,,,0.00,,2013-11-12 06:42:00,
2013-11-12 01:52:00,48.0,32.0,29.87,NNW,339,2.0,8.0,53,0.00,,,0.00,,2013-11-12 06:52:00,
2013-11-12 02:11:00,48.0,34.0,29.88,NNE,17,5.0,13.0,57,0.00,,,0.00,,2013-11-12 07:11:00,
2013-11-12 02:21:00,48.0,35.0,29.88,North,359,4.0,14.0,60,0.00,,,0.00,,2013-11-12 07:21:00,
2013-11-12 02:42:00,46.0,36.0,29.89,North,349,4.0,9.0,69,0.00,,,0.00,,2013-11-12 07:42:00,
2013-11-12 02:52:00,46.0,37.0,29.89,North,1,3.0,8.0,72,0.00,,,0.00,,2013-11-12 07:52:00,
2013-11-12 03:21:00,44.0,38.0,29.88,WNW,284,1.0,7.0,79,0.01,,,0.01,,2013-11-12 08:21:00,
2013-11-12 03:42:00,44.0,38.0,29.88,NNW,331,2.0,9.0,80,0.01,,,0.01,,2013-11-12 08:42:00,
2013-11-12 03:52:00,44.0,39.0,29.88,NNW,335,3.0,7.0,82,0.01,,,0.01,,2013-11-12 08:52:00,
2013-11-12 04:22:00,43.0,38.0,29.88,NW,323,1.0,5.0,84,0.01,,,0.02,,2013-11-12 09:22:00,
2013-11-12 04:42:00,43.0,39.0,29.89,NW,322,1.0,4.0,85,0.01,,,0.02,,2013-11-12 09:42:00,
2013-11-12 04:54:00,43.0,39.0,29.90,NW,324,2.0,4.0,86,0.01,,,0.02,,2013-11-12 09:54:00,
2013-11-12 05:13:00,43.0,39.0,29.89,North,10,1.0,6.0,87,0.01,,,0.03,,2013-11-12 10:13:00,
2013-11-12 05:23:00,42.0,38.0,29.90,NW,322,2.0,5.0,87,0.01,,,0.03,,2013-11-12 10:23:00,
2013-11-12 05:42:00,42.0,39.0,29.91,East,86,2.0,5.0,88,0.02,,,0.04,,2013-11-12 10:42:00,
2013-11-12 05:53:00,42.0,39.0,29.91,NNE,31,2.0,3.0,88,0.02,,,0.04,,2013-11-12 10:53:00,
2013-11-12 06:12:00,38.0,34.0,29.94,ESE,105,1.0,5.0,86,0.02,,,0.05,,2013-11-12 11:12:00,
2013-11-12 06:22:00,37.0,34.0,29.94,SE,146,3.0,6.0,89,0.03,,,0.06,,2013-11-12 11:22:00,
2013-11-12 06:42:00,36.0,34.0,29.95,NE,51,3.0,4.0,91,0.03,,,0.07,,2013-11-12 11:42:00,
2013-11-12 06:52:00,36.0,34.0,29.96,East,83,1.0,6.0,92,0.03,,,0.08,,2013-11-12 11:52:00,
2013-11-12 07:22:00,35.0,32.0,29.97,ENE,57,2.0,7.0,87,0.02,,,0.08,,2013-11-12 12:22:00,
2013-11-12 07:42:00,35.0,32.0,29.98,East,90,2.0,6.0,88,0.01,,,0.08,,2013-11-12 12:42:00,
2013-11-12 07:52:00,34.0,30.0,29.98,NE,45,2.0,7.0,84,0.00,,,0.08,,2013-11-12 12:52:00,
2013-11-12 08:22:00,35.0,29.0,30.00,ENE,60,3.0,7.0,79,0.00,,,0.08,,2013-11-12 13:22:00,
2013-11-12 08:42:00,35.0,28.0,30.00,SSE,153,1.0,6.0,74,0.00,,,0.08,,2013-11-12 13:42:00,
2013-11-12 08:52:00,35.0,28.0,30.01,ESE,114,3.0,6.0,74,0.00,,,0.08,,2013-11-12 13:52:00,
2013-11-12 09:12:00,35.0,24.0,30.01,NNE,16,4.0,9.0,64,0.00,,,0.08,,2013-11-12 14:12:00,
2013-11-12 09:22:00,35.0,24.0,30.02,NE,47,3.0,8.0,65,0.00,,,0.08,,2013-11-12 14:22:00,
2013-11-12 09:42:00,35.0,24.0,30.02,ESE,108,4.0,7.0,64,0.00,,,0.08,,2013-11-12 14:42:00,
2013-11-12 09:52:00,35.0,24.0,30.02,ENE,72,3.0,7.0,65,0.00,,,0.08,,2013-11-12 14:52:00,
2013-11-12 10:22:00,35.0,22.0,30.04,SSE,155,4.0,8.0,58,0.00,,,0.08,,2013-11-12 15:22:00,
2013-11-12 10:44:00,34.0,22.0,30.04,SSE,163,2.0,8.0,60,0.00,,,0.08,,2013-11-12 15:44:00,
2013-11-12 10:53:00,34.0,21.0,30.04,ENE,70,3.0,6.0,58,0.00,,,0.08,,2013-11-12 15:53:00,
2013-11-12 11:23:00,34.0,21.0,30.04,SSE,158,1.0,8.0,59,0.00,,,0.08,,2013-11-12 16:23:00,
2013-11-12 11:42:00,34.0,22.0,30.03,ESE,123,2.0,7.0,61,0.00,,,0.08,,2013-11-12 16:42:00,
2013-11-12 11:52:00,34.0,22.0,30.03,East,91,2.0,8.0,60,0.00,,,0.08,,2013-11-12 16:52:00,
2013-11-12 12:12:00,34.0,22.0,30.03,ESE,122,3.0,6.0,60,0.00,,,0.08,,2013-11-12 17:12:00,
2013-11-12 12:23:00,34.0,21.0,30.04,NNE,23,2.0,7.0,59,0.00,,,0.08,,2013-11-12 17:23:00,
2013-11-12 12:52:00,33.0,19.0,30.04,ESE,110,3.0,9.0,56,0.00,,,0.08,,2013-11-12 17:52:00,
2013-11-12 13:12:00,33.0,19.0,30.04,North,8,4.0,8.0,55,0.00,,,0.08,,2013-11-12 18:12:00,
2013-11-12 13:23:00,32.0,18.0,30.04,ESE,108,3.0,11.0,56,0.00,,,0.08,,2013-11-12 18:23:00,
2013-11-12 13:42:00,32.0,18.0,30.05,ENE,77,4.0,12.0,56,0.00,,,0.08,,2013-11-12 18:42:00,
2013-11-12 13:52:00,33.0,20.0,30.05,ESE,105,2.0,7.0,58,0.00,,,0.08,,2013-11-12 18:52:00,
2013-11-12 14:22:00,32.0,18.0,30.05,ESE,108,4.0,10.0,55,0.00,,,0.08,,2013-11-12 19:22:00,
2013-11-12 14:42:00,32.0,18.0,30.06,ESE,107,4.0,12.0,55,0.00,,,0.08,,2013-11-12 19:42:00,
2013-11-12 14:52:00,32.0,19.0,30.07,ENE,75,2.0,8.0,58,0.00,,,0.08,,2013-11-12 19:52:00,
2013-11-12 15:11:00,32.0,18.0,30.07,East,85,3.0,8.0,56,0.00,,,0.08,,2013-11-12 20:11:00,
2013-11-12 15:21:00,32.0,18.0,30.07,ENE,65,3.0,11.0,56,0.00,,,0.08,,2013-11-12 20:21:00,
2013-11-12 15:52:00,32.0,18.0,30.07,SE,133,2.0,6.0,55,0.00,,,0.08,,2013-11-12 20:52:00,
2013-11-12 16:12:00,32.0,18.0,30.07,SE,144,3.0,7.0,55,0.00,,,0.08,,2013-11-12 21:12:00,
2013-11-12 16:22:00,32.0,18.0,30.08,ENE,75,2.0,4.0,56,0.00,,,0.08,,2013-11-12 21:22:00,
2013-11-12 16:44:00,33.0,19.0,30.09,SE,140,0.0,3.0,57,0.00,,,0.08,,2013-11-12 21:44:00,
2013-11-12 16:54:00,32.0,18.0,30.09,SE,145,3.0,7.0,56,0.00,,,0.08,,2013-11-12 21:54:00,
2013-11-12 17:24:00,32.0,17.0,30.11,East,93,3.0,6.0,54,0.00,,,0.08,,2013-11-12 22:24:00,
2013-11-12 17:54:00,33.0,18.0,30.12,SE,136,2.0,7.0,53,0.00,,,0.08,,2013-11-12 22:54:00,
2013-11-12 18:12:00,32.0,17.0,30.13,SE,140,3.0,6.0,54,0.00,,,0.08,,2013-11-12 23:12:00,
2013-11-12 18:23:00,32.0,18.0,30.13,NE,47,2.0,4.0,55,0.00,,,0.08,,2013-11-12 23:23:00,
2013-11-12 18:42:00,32.0,18.0,30.13,NE,41,1.0,4.0,56,0.00,,,0.08,,2013-11-12 23:42:00,
2013-11-12 18:54:00,31.0,17.0,30.13,ESE,122,3.0,6.0,56,0.00,,,0.08,,2013-11-12 23:54:00,
2013-11-12 19:11:00,31.0,18.0,30.14,ESE,108,1.0,7.0,57,0.00,,,0.08,,2013-11-13 00:11:00,
2013-11-12 19:22:00,31.0,18.0,30.14,SSE,165,2.0,6.0,57,0.00,,,0.08,,2013-11-13 00:22:00,
2013-11-12 19:42:00,31.0,18.0,30.14,NE,51,4.0,8.0,57,0.00,,,0.08,,2013-11-13 00:42:00,
2013-11-12 19:52:00,31.0,18.0,30.14,SE,138,1.0,4.0,59,0.00,,,0.08,,2013-11-13 00:52:00,
2013-11-12 20:12:00,30.0,17.0,30.14,SE,137,2.0,5.0,59,0.00,,,0.08,,2013-11-13 01:12:00,
2013-11-12 20:22:00,30.0,17.0,30.14,ESE,122,2.0,5.0,58,0.00,,,0.08,,2013-11-13 01:22:00,
2013-11-12 20:42:00,30.0,17.0,30.14,NE,50,1.0,7.0,58,0.00,,,0.08,,2013-11-13 01:42:00,
2013-11-12 20:52:00,30.0,17.0,30.14,SSE,164,2.0,6.0,57,0.00,,,0.08,,2013-11-13 01:52:00,
2013-11-12 21:22:00,30.0,17.0,30.15,East,85,1.0,5.0,58,0.00,,,0.08,,2013-11-13 02:22:00,
2013-11-12 21:42:00,30.0,17.0,30.15,ESE,107,1.0,3.0,58,0.00,,,0.08,,2013-11-13 02:42:00,
2013-11-12 21:52:00,29.0,16.0,30.16,ENE,69,1.0,3.0,58,0.00,,,0.08,,2013-11-13 02:52:00,
2013-11-12 22:22:00,29.0,17.0,30.16,ESE,107,0.0,2.0,61,0.00,,,0.08,,2013-11-13 03:22:00,
2013-11-12 22:44:00,28.0,16.0,30.15,ESE,108,1.0,3.0,60,0.00,,,0.08,,2013-11-13 03:44:00,
2013-11-12 22:54:00,28.0,16.0,30.16,NNE,20,1.0,3.0,60,0.00,,,0.08,,2013-11-13 03:54:00,
2013-11-12 23:14:00,28.0,16.0,30.16,NNE,13,1.0,3.0,60,0.00,,,0.08,,2013-11-13 04:14:00,
2013-11-12 23:43:00,28.0,16.0,30.16,NE,45,0.0,3.0,61,0.00,,,0.08,,2013-11-13 04:43:00,
2013-11-12 23:53:00,28.0,17.0,30.16,NNE,15,1.0,1.0,62,0.00,,,0.08,,2013-11-13 04:53:00,